Time;durP1;ratioP1;P1;durP2;ratioP2;P2;SDS_P1;SDS_P2;PMS_P1;PMS_P2;Temp;Humidity;BMP_temperature;BMP_pressure;BME280_temperature;BME280_humidity;BME280_pressure;Samples;Min_cycle;Max_cycle;Signal;HPM_P1;HPM_P2
2022/01/22 00:01:31;;;;;;;11.23;3.30;;;0.10;99.90;;;;;;2604061;46;20182;31
2022/01/22 00:04:08;;;;;;;6.85;2.40;;;0.10;99.90;;;;;;2585677;54;20026;31
2022/01/22 00:06:46;;;;;;;17.60;3.70;;;0.10;99.90;;;;;;2585605;54;20972;31
2022/01/22 00:09:46;;;;;;;12.25;3.25;;;0.10;99.90;;;;;;2585078;54;20016;31
2022/01/22 00:15:16;;;;;;;9.27;3.33;;;0.20;99.90;;;;;;2585317;54;20961;31
2022/01/22 00:17:52;;;;;;;7.65;2.25;;;0.10;99.90;;;;;;2585654;54;20030;31
2022/01/22 00:20:30;;;;;;;15.87;3.67;;;0.10;99.90;;;;;;2585732;54;20026;31
2022/01/22 00:23:08;;;;;;;13.60;3.65;;;0.10;99.90;;;;;;2585506;54;20046;31
2022/01/22 00:25:43;;;;;;;12.80;4.00;;;0.10;99.90;;;;;;2585617;54;20956;31
2022/01/22 00:28:18;;;;;;;15.80;4.73;;;0.10;99.90;;;;;;2603463;46;20814;31
2022/01/22 00:30:55;;;;;;;11.60;3.97;;;0.10;99.90;;;;;;2603977;46;20788;31
2022/01/22 00:33:27;;;;;;;13.23;4.00;;;0.00;99.90;;;;;;2585260;54;20034;31
2022/01/22 00:36:00;;;;;;;18.27;4.85;;;0.00;99.90;;;;;;2585796;54;21004;31
2022/01/22 00:38:37;;;;;;;11.97;4.27;;;0.10;99.90;;;;;;2585279;54;20077;31
2022/01/22 00:41:19;;;;;;;12.10;4.77;;;0.10;99.90;;;;;;2585489;54;20030;31
2022/01/22 00:43:54;;;;;;;11.25;3.75;;;0.10;99.90;;;;;;2585659;54;20026;31
2022/01/22 00:46:28;;;;;;;14.70;4.10;;;0.10;99.90;;;;;;2585328;54;21012;31
2022/01/22 00:49:04;;;;;;;13.53;5.27;;;0.10;99.90;;;;;;2584752;54;20136;31
2022/01/22 00:51:38;;;;;;;9.50;4.00;;;0.10;99.90;;;;;;2585541;54;20053;31
2022/01/22 00:54:15;;;;;;;15.02;4.63;;;0.20;99.90;;;;;;2585433;54;20034;31
2022/01/22 00:56:55;;;;;;;14.67;5.47;;;0.10;99.90;;;;;;2585258;54;20845;31
2022/01/22 00:59:28;;;;;;;14.07;4.40;;;0.10;99.90;;;;;;2585389;54;20026;31
2022/01/22 01:02:05;;;;;;;17.70;4.90;;;0.20;99.90;;;;;;2585143;54;20893;31
2022/01/22 01:04:38;;;;;;;14.55;5.55;;;0.20;99.90;;;;;;2585147;54;20847;31
2022/01/22 01:07:11;;;;;;;14.90;5.20;;;0.20;99.90;;;;;;2585205;54;20026;31
2022/01/22 01:09:50;;;;;;;10.67;4.60;;;0.20;99.90;;;;;;2585372;54;21014;31
2022/01/22 01:12:23;;;;;;;14.50;5.00;;;0.20;99.90;;;;;;2585077;54;20055;31
2022/01/22 01:15:16;;;;;;;14.67;5.13;;;0.30;99.90;;;;;;2585250;54;20033;31
2022/01/22 01:32:17;;;;;;;11.90;4.32;;;0.30;99.90;;;;;;2584994;54;19941;31
2022/01/22 01:34:53;;;;;;;13.25;4.80;;;0.30;99.90;;;;;;2603798;46;20801;31
2022/01/22 01:37:26;;;;;;;14.88;4.72;;;0.30;99.90;;;;;;2585346;54;20032;31
2022/01/22 01:40:06;;;;;;;8.63;4.50;;;0.30;99.90;;;;;;2603353;46;20972;31
2022/01/22 01:42:48;;;;;;;11.10;5.13;;;0.30;99.90;;;;;;2603507;46;20068;31
2022/01/22 01:45:28;;;;;;;14.07;4.93;;;0.30;99.90;;;;;;2585317;54;20971;31
2022/01/22 01:48:08;;;;;;;13.60;4.65;;;0.30;99.90;;;;;;2584980;54;20058;31
2022/01/22 01:50:48;;;;;;;9.90;3.85;;;0.40;99.90;;;;;;2604014;46;20030;31
2022/01/22 01:53:45;;;;;;;8.32;3.35;;;0.40;99.90;;;;;;2584927;54;20022;31
2022/01/22 01:59:07;;;;;;;8.82;4.85;;;0.40;99.90;;;;;;2584859;54;21250;31
2022/01/22 02:01:50;;;;;;;;;;;0.40;99.90;;;;;;2585436;54;20065;31
2022/01/22 02:04:26;;;;;;;9.80;4.50;;;0.40;99.90;;;;;;2585183;54;19946;31
2022/01/22 02:07:05;;;;;;;8.13;3.78;;;0.40;99.90;;;;;;2584082;54;20120;31
2022/01/22 02:09:44;;;;;;;9.73;4.13;;;0.40;99.90;;;;;;2585217;54;20890;31
2022/01/22 02:12:40;;;;;;;9.20;4.35;;;0.40;99.90;;;;;;2585133;54;20030;31
2022/01/22 02:27:06;;;;;;;11.82;5.32;;;0.50;99.90;;;;;;2585893;54;20030;31
2022/01/22 02:29:42;;;;;;;13.15;5.90;;;0.50;99.90;;;;;;2586075;54;20068;31
2022/01/22 02:32:59;;;;;;;8.00;4.80;;;0.60;99.90;;;;;;2585645;54;20100;31
2022/01/22 02:35:42;;;;;;;11.75;5.30;;;0.60;99.90;;;;;;2585927;54;20855;31
2022/01/22 02:38:19;;;;;;;12.75;6.28;;;0.60;99.90;;;;;;2585846;54;20801;31
2022/01/22 02:40:55;;;;;;;13.45;6.13;;;0.60;99.90;;;;;;2684132;39;21078;31
2022/01/22 02:43:33;;;;;;;10.50;5.20;;;0.70;99.90;;;;;;2585729;54;20927;31
2022/01/22 02:46:07;;;;;;;10.30;5.30;;;0.70;99.90;;;;;;2585789;54;20953;31
2022/01/22 02:48:42;;;;;;;11.57;5.40;;;0.70;99.90;;;;;;2585565;54;20245;31
2022/01/22 02:51:17;;;;;;;10.10;6.50;;;0.70;99.90;;;;;;2585892;54;20239;31
2022/01/22 02:53:56;;;;;;;6.97;5.17;;;0.70;99.90;;;;;;2585022;54;20038;31
2022/01/22 02:56:35;;;;;;;12.68;5.55;;;0.70;99.90;;;;;;2585796;54;20935;31
2022/01/22 02:59:20;;;;;;;8.18;6.22;;;0.70;99.90;;;;;;2585951;54;21158;31
2022/01/22 03:01:59;;;;;;;9.00;5.40;;;0.70;99.90;;;;;;2585798;54;21002;31
2022/01/22 03:04:37;;;;;;;7.55;5.05;;;0.70;99.90;;;;;;2683913;39;21167;31
2022/01/22 03:07:10;;;;;;;10.70;5.90;;;0.70;99.90;;;;;;2585818;54;20053;31
2022/01/22 03:09:47;;;;;;;9.15;5.18;;;0.70;99.90;;;;;;2585324;54;20870;31
2022/01/22 03:18:09;;;;;;;10.47;5.33;;;0.70;99.90;;;;;;2584925;54;20945;31
2022/01/22 03:21:04;;;;;;;8.55;4.80;;;0.70;99.90;;;;;;2586039;54;20026;31
2022/01/22 03:29:18;;;;;;;9.20;4.90;;;0.70;99.90;;;;;;2585859;54;19941;31
2022/01/22 03:31:54;;;;;;;10.23;5.47;;;0.70;99.90;;;;;;2585778;54;20900;31
2022/01/22 03:34:28;;;;;;;8.30;6.00;;;0.70;99.90;;;;;;2585657;54;20054;31
2022/01/22 03:37:01;;;;;;;9.23;5.53;;;0.80;99.90;;;;;;2585630;54;20916;31
2022/01/22 03:39:36;;;;;;;10.10;5.93;;;0.70;99.90;;;;;;2603844;46;20413;31
2022/01/22 03:42:11;;;;;;;10.40;6.33;;;0.70;99.90;;;;;;2604360;46;20031;31
2022/01/22 03:44:43;;;;;;;12.05;5.85;;;0.70;99.90;;;;;;2603994;46;20031;31
2022/01/22 03:47:23;;;;;;;10.80;6.45;;;0.80;99.90;;;;;;2585984;54;19941;31
2022/01/22 03:49:59;;;;;;;9.05;6.65;;;0.80;99.90;;;;;;2683736;39;21020;31
2022/01/22 03:52:32;;;;;;;9.30;6.80;;;0.80;99.90;;;;;;2584763;54;21444;31
2022/01/22 03:55:13;;;;;;;11.00;7.20;;;0.80;99.90;;;;;;2585824;54;20035;31
2022/01/22 03:58:05;;;;;;;10.65;6.25;;;0.80;99.90;;;;;;2585921;54;20092;31
2022/01/22 04:00:44;;;;;;;11.40;6.85;;;0.80;99.90;;;;;;2585453;54;20112;31
2022/01/22 04:06:48;;;;;;;12.70;7.25;;;0.80;99.90;;;;;;2585403;54;20962;31
2022/01/22 04:09:28;;;;;;;11.45;6.55;;;0.80;99.90;;;;;;2585482;54;20772;31
2022/01/22 04:12:01;;;;;;;12.30;6.25;;;0.80;99.90;;;;;;2591736;46;21178;31
2022/01/22 04:14:44;;;;;;;9.50;6.47;;;0.80;99.90;;;;;;2604270;46;20931;31
2022/01/22 04:17:35;;;;;;;10.50;6.33;;;0.80;99.90;;;;;;2585597;54;20026;31
2022/01/22 04:25:57;;;;;;;10.37;6.40;;;0.70;99.90;;;;;;2603903;46;20893;31
2022/01/22 04:28:33;;;;;;;10.65;7.55;;;0.70;99.90;;;;;;2603775;46;20053;31
2022/01/22 04:31:08;;;;;;;10.20;7.23;;;0.70;99.90;;;;;;2584707;54;20022;31
2022/01/22 04:33:46;;;;;;;10.80;7.30;;;0.70;99.90;;;;;;2603878;46;20731;31
2022/01/22 04:36:25;;;;;;;9.82;6.70;;;0.70;99.90;;;;;;2584694;54;20942;31
2022/01/22 04:41:33;;;;;;;12.23;7.05;;;0.70;99.90;;;;;;2603892;46;20026;31
2022/01/22 04:44:11;;;;;;;10.23;6.43;;;0.70;99.90;;;;;;2603806;46;20817;31
2022/01/22 04:47:00;;;;;;;12.17;7.50;;;0.70;99.90;;;;;;2604090;46;20964;31
2022/01/22 04:52:38;;;;;;;12.35;9.00;;;0.60;99.90;;;;;;2585394;54;20016;31
2022/01/22 04:55:11;;;;;;;12.50;8.60;;;0.60;99.90;;;;;;2585525;54;20030;31
2022/01/22 04:57:50;;;;;;;10.95;8.32;;;0.70;99.90;;;;;;2585449;54;20938;31
2022/01/22 05:00:25;;;;;;;12.43;9.33;;;0.60;99.90;;;;;;2585047;54;20026;31
2022/01/22 05:03:30;;;;;;;12.70;8.70;;;0.50;99.90;;;;;;2585191;54;21140;31
2022/01/22 05:06:26;;;;;;;16.05;10.05;;;0.50;99.90;;;;;;2585662;54;20102;31
2022/01/22 05:09:13;;;;;;;14.82;9.48;;;0.50;99.90;;;;;;2585152;54;20934;31
2022/01/22 05:12:14;;;;;;;14.50;9.63;;;0.40;99.90;;;;;;2585194;54;20129;31
2022/01/22 05:17:41;;;;;;;13.73;9.17;;;0.40;99.90;;;;;;2603832;46;21107;31
2022/01/22 05:20:28;;;;;;;13.07;8.27;;;0.20;99.90;;;;;;2585379;54;20886;31
2022/01/22 05:23:09;;;;;;;11.37;8.37;;;0.20;99.90;;;;;;2584926;54;20324;31
2022/01/22 05:25:49;;;;;;;15.60;9.30;;;0.10;99.90;;;;;;2603887;46;20235;31
2022/01/22 05:29:01;;;;;;;15.77;9.73;;;0.10;99.90;;;;;;2585520;54;20050;31
2022/01/22 05:31:53;;;;;;;17.58;10.55;;;0.00;99.90;;;;;;2585312;54;20924;31
2022/01/22 05:37:40;;;;;;;12.45;8.95;;;0.10;99.90;;;;;;2585069;54;20888;31
2022/01/22 05:40:17;;;;;;;13.95;9.32;;;-0.10;99.90;;;;;;2683399;39;21069;31
2022/01/22 05:42:52;;;;;;;14.70;9.70;;;-0.10;99.90;;;;;;2585374;54;20935;31
2022/01/22 05:45:27;;;;;;;14.67;9.00;;;-0.20;99.90;;;;;;2585285;54;20962;31
2022/01/22 05:48:03;;;;;;;15.97;10.43;;;-0.30;99.90;;;;;;2585147;54;21268;31
2022/01/22 05:50:48;;;;;;;15.35;9.60;;;-0.30;99.90;;;;;;2599114;46;21175;31
2022/01/22 05:53:38;;;;;;;14.80;9.00;;;-0.40;99.90;;;;;;2603636;46;21237;31
2022/01/22 06:01:49;;;;;;;12.45;8.30;;;-0.50;99.90;;;;;;2585403;54;20027;31
2022/01/22 06:04:25;;;;;;;12.47;8.40;;;-0.50;99.90;;;;;;2585140;54;20097;31
2022/01/22 06:07:17;;;;;;;15.23;9.33;;;-0.50;99.90;;;;;;2585206;54;20035;31
2022/01/22 06:10:05;;;;;;;14.00;8.60;;;-0.50;99.90;;;;;;2585112;54;20022;31
2022/01/22 06:12:56;;;;;;;17.40;8.70;;;-0.60;99.90;;;;;;2585208;54;20935;31
2022/01/22 06:18:38;;;;;;;14.18;9.07;;;-0.70;99.90;;;;;;2604079;47;22391;31
2022/01/22 06:21:13;;;;;;;15.95;9.43;;;-0.70;99.90;;;;;;2585149;54;20033;31
2022/01/22 06:23:49;;;;;;;15.00;9.50;;;-0.80;99.90;;;;;;2585189;54;20943;31
2022/01/22 06:26:24;;;;;;;15.43;9.43;;;-0.80;99.90;;;;;;2584133;54;21021;31
2022/01/22 06:29:01;;;;;;;14.87;8.57;;;-0.90;99.90;;;;;;2585413;54;20992;31
2022/01/22 06:31:36;;;;;;;12.05;7.60;;;-0.90;99.90;;;;;;2603396;47;20275;31
2022/01/22 06:34:19;;;;;;;17.27;11.15;;;-1.00;99.90;;;;;;2585163;54;20026;31
2022/01/22 06:36:53;;;;;;;17.35;10.70;;;-1.00;99.90;;;;;;2603537;47;20935;31
2022/01/22 06:39:40;;;;;;;13.50;8.40;;;-1.10;99.90;;;;;;2585213;54;20921;31
2022/01/22 06:42:47;;;;;;;14.98;9.77;;;-1.10;99.90;;;;;;2585144;54;20089;31
2022/01/22 06:45:40;;;;;;;17.85;10.70;;;-1.10;99.90;;;;;;2585053;54;20085;31
2022/01/22 06:48:18;;;;;;;19.25;10.30;;;-1.20;99.90;;;;;;2584968;54;20961;31
2022/01/22 06:51:11;;;;;;;13.33;8.70;;;-1.10;99.90;;;;;;2585013;54;19941;31
2022/01/22 06:53:49;;;;;;;13.55;7.63;;;-1.20;99.90;;;;;;2585014;54;20050;31
2022/01/22 06:56:24;;;;;;;12.40;8.40;;;-1.20;99.90;;;;;;2584771;54;20077;31
2022/01/22 06:59:18;;;;;;;15.20;8.50;;;-1.20;99.90;;;;;;2585023;54;19940;31
2022/01/22 07:01:54;;;;;;;14.00;8.65;;;-1.20;99.90;;;;;;2585073;54;20141;31
2022/01/22 07:04:36;;;;;;;13.88;8.13;;;-1.20;99.90;;;;;;2584749;54;20029;31
2022/01/22 07:07:46;;;;;;;14.70;9.02;;;-1.20;99.90;;;;;;2603789;47;20030;31
2022/01/22 07:10:23;;;;;;;16.60;8.95;;;-1.10;99.90;;;;;;2603142;47;20026;31
2022/01/22 07:13:00;;;;;;;13.05;7.88;;;-1.10;99.90;;;;;;2604211;46;20018;31
2022/01/22 07:15:37;;;;;;;;;;;-1.10;99.90;;;;;;2586377;54;22392;31
2022/01/22 07:18:24;;;;;;;15.10;7.40;;;-1.00;99.90;;;;;;2603740;46;20806;31
2022/01/22 07:21:19;;;;;;;14.68;7.93;;;-1.10;99.90;;;;;;2585800;54;20246;31
2022/01/22 07:24:22;;;;;;;15.97;8.43;;;-1.10;99.90;;;;;;2585845;54;20928;31
2022/01/22 07:27:06;;;;;;;17.77;9.27;;;-1.10;99.90;;;;;;2604227;46;20080;31
2022/01/22 07:29:44;;;;;;;14.48;9.30;;;-1.10;99.90;;;;;;2585611;54;20022;31
2022/01/22 07:32:28;;;;;;;;;;;-1.00;99.90;;;;;;2585942;54;20807;31
2022/01/22 07:35:02;;;;;;;11.25;7.65;;;-1.00;99.90;;;;;;2585955;54;20820;31
2022/01/22 07:37:40;;;;;;;11.75;7.25;;;-0.70;99.90;;;;;;2585783;54;20828;31
2022/01/22 07:40:24;;;;;;;;;;;-0.30;99.90;;;;;;2604273;46;21138;31
2022/01/22 07:43:04;;;;;;;9.75;6.90;;;0.30;99.90;;;;;;2587049;46;19969;31
2022/01/22 07:45:59;;;;;;;11.38;6.70;;;0.90;99.90;;;;;;2585718;54;20898;31
2022/01/22 07:48:41;;;;;;;10.95;6.90;;;1.60;99.90;;;;;;2584793;54;20077;31
2022/01/22 07:51:19;;;;;;;8.77;5.93;;;2.20;99.90;;;;;;2585530;54;20875;31
2022/01/22 07:53:55;;;;;;;7.25;5.95;;;2.90;99.90;;;;;;2585709;54;20023;31
2022/01/22 07:59:21;;;;;;;9.75;7.85;;;4.10;99.90;;;;;;2585406;54;20082;31
2022/01/22 08:01:59;;;;;;;12.48;7.90;;;4.30;99.90;;;;;;2585515;54;19941;31
2022/01/22 08:04:56;;;;;;;12.15;8.05;;;4.60;99.90;;;;;;2585737;54;20027;31
2022/01/22 08:07:49;;;;;;;12.98;8.52;;;5.00;99.90;;;;;;2585779;54;20037;31
2022/01/22 08:10:56;;;;;;;14.55;7.25;;;4.80;99.90;;;;;;2585640;54;20861;31
2022/01/22 08:13:32;;;;;;;10.27;6.93;;;5.00;99.90;;;;;;2754519;31;22762;31
2022/01/22 08:16:07;;;;;;;12.75;7.75;;;5.20;99.90;;;;;;2585216;54;20081;31
2022/01/22 08:18:42;;;;;;;14.27;8.97;;;5.50;99.90;;;;;;2585340;54;20979;31
2022/01/22 08:21:24;;;;;;;15.40;8.93;;;5.70;99.90;;;;;;2585427;54;20262;31
2022/01/22 08:24:19;;;;;;;10.80;7.68;;;5.90;99.90;;;;;;2585448;54;20229;31
2022/01/22 08:27:13;;;;;;;11.75;8.00;;;5.90;99.90;;;;;;2682614;39;22352;31
2022/01/22 08:29:49;;;;;;;15.43;7.40;;;5.90;99.90;;;;;;2584313;54;20065;31
2022/01/22 08:32:56;;;;;;;14.20;7.72;;;6.00;99.90;;;;;;2585224;54;20905;31
2022/01/22 08:40:51;;;;;;;9.70;6.70;;;5.50;99.90;;;;;;2585485;54;22522;31
2022/01/22 08:43:27;;;;;;;8.75;6.28;;;5.60;99.90;;;;;;2585631;54;20976;31
2022/01/22 08:46:04;;;;;;;11.00;6.10;;;5.80;99.90;;;;;;2598164;46;20039;31
2022/01/22 08:48:41;;;;;;;7.40;5.15;;;5.70;99.90;;;;;;2585294;54;20121;31
2022/01/22 08:51:17;;;;;;;8.13;5.55;;;5.60;99.90;;;;;;2585334;54;20828;31
2022/01/22 08:53:58;;;;;;;8.70;4.93;;;5.30;99.90;;;;;;2589779;46;20026;31
2022/01/22 08:56:37;;;;;;;7.00;5.40;;;5.20;99.90;;;;;;2585102;54;20034;31
2022/01/22 08:59:13;;;;;;;7.82;4.65;;;5.20;99.90;;;;;;2585529;54;20039;31
2022/01/22 09:01:53;;;;;;;7.35;4.65;;;4.90;99.90;;;;;;2585161;54;21009;31
2022/01/22 09:04:47;;;;;;;9.70;5.25;;;4.80;99.90;;;;;;2603499;46;20053;31
2022/01/22 09:07:21;;;;;;;8.65;4.30;;;4.80;99.90;;;;;;2585357;54;20779;31
2022/01/22 09:09:56;;;;;;;8.27;4.97;;;4.80;99.90;;;;;;2585262;54;20923;31
2022/01/22 09:12:50;;;;;;;7.25;4.70;;;5.20;99.90;;;;;;2683131;39;21425;31
2022/01/22 09:15:33;;;;;;;5.53;3.77;;;5.00;99.90;;;;;;2585101;54;20896;31
2022/01/22 09:18:11;;;;;;;9.77;3.65;;;4.70;99.90;;;;;;2603137;46;20045;31
2022/01/22 09:21:01;;;;;;;7.03;3.67;;;4.60;99.90;;;;;;2584154;54;20045;31
2022/01/22 09:23:39;;;;;;;7.97;3.80;;;4.50;99.90;;;;;;2584170;54;21020;31
2022/01/22 09:26:26;;;;;;;6.80;3.80;;;4.50;99.90;;;;;;2584167;54;20984;31
2022/01/22 09:29:05;;;;;;;5.10;2.85;;;4.80;99.90;;;;;;2585140;54;20023;31
2022/01/22 09:31:40;;;;;;;6.47;3.45;;;4.60;99.90;;;;;;2585089;54;20078;31
2022/01/22 09:34:21;;;;;;;6.10;3.30;;;4.70;99.90;;;;;;2584832;54;20072;31
2022/01/22 09:37:24;;;;;;;9.07;4.53;;;4.60;99.90;;;;;;2585233;54;20793;31
2022/01/22 09:40:18;;;;;;;;;;;4.50;99.90;;;;;;2585306;54;20018;31
2022/01/22 09:43:10;;;;;;;8.85;3.15;;;4.60;99.90;;;;;;2584970;54;19954;31
2022/01/22 09:46:10;;;;;;;8.38;3.50;;;4.50;99.90;;;;;;2683288;39;20999;31
2022/01/22 09:48:54;;;;;;;8.70;3.70;;;4.50;99.90;;;;;;2585205;54;21771;31
2022/01/22 09:52:02;;;;;;;8.10;2.90;;;4.70;99.90;;;;;;2584839;54;20023;31
2022/01/22 09:55:07;;;;;;;9.23;3.40;;;4.90;99.90;;;;;;2585237;54;20048;31
2022/01/22 09:58:06;;;;;;;8.20;3.42;;;5.20;99.90;;;;;;2603234;46;20905;31
2022/01/22 10:00:58;;;;;;;8.25;3.85;;;5.20;99.90;;;;;;2585330;54;21965;31
2022/01/22 10:03:49;;;;;;;9.07;4.15;;;5.20;99.90;;;;;;2584904;54;20912;31
2022/01/22 10:06:50;;;;;;;8.13;3.03;;;5.20;99.90;;;;;;2584900;54;20974;31
2022/01/22 10:10:06;;;;;;;8.40;3.60;;;5.30;99.90;;;;;;2584674;54;20942;31
2022/01/22 10:12:50;;;;;;;8.65;4.20;;;5.00;99.90;;;;;;2584970;54;20994;31
2022/01/22 10:15:32;;;;;;;7.55;3.40;;;5.00;99.90;;;;;;2584967;54;20053;31
2022/01/22 10:18:10;;;;;;;7.72;3.75;;;4.90;99.90;;;;;;2584166;54;20061;31
2022/01/22 10:20:56;;;;;;;8.57;3.78;;;4.90;99.90;;;;;;2585160;54;20038;31
2022/01/22 10:23:37;;;;;;;9.57;3.92;;;4.80;99.90;;;;;;2584742;54;20908;31
2022/01/22 10:26:13;;;;;;;7.45;4.07;;;4.90;99.90;;;;;;2603565;47;20023;31
2022/01/22 10:28:49;;;;;;;;;;;4.80;99.90;;;;;;2585472;54;22441;31
2022/01/22 10:31:27;;;;;;;7.73;3.70;;;4.70;99.90;;;;;;2583943;54;20789;31
2022/01/22 10:34:25;;;;;;;7.35;4.00;;;4.70;99.90;;;;;;2585230;54;20987;31
2022/01/22 10:37:19;;;;;;;10.15;4.10;;;4.50;99.90;;;;;;2585192;54;20022;31
2022/01/22 10:40:14;;;;;;;9.75;4.00;;;4.30;99.90;;;;;;2585048;54;21040;31
2022/01/22 10:42:51;;;;;;;9.60;4.30;;;4.30;99.90;;;;;;2603470;47;20976;31
2022/01/22 10:45:31;;;;;;;8.77;3.72;;;4.10;99.90;;;;;;2584699;54;20796;31
2022/01/22 10:48:20;;;;;;;9.80;4.20;;;4.00;99.90;;;;;;2584298;54;20917;31
2022/01/22 10:53:41;;;;;;;15.75;6.10;;;3.60;99.90;;;;;;2585911;54;20028;31
2022/01/22 10:56:22;;;;;;;10.20;4.50;;;3.50;99.90;;;;;;2585099;54;20037;31
2022/01/22 10:59:01;;;;;;;7.50;3.60;;;3.70;99.90;;;;;;2584782;54;20062;31
2022/01/22 11:01:47;;;;;;;12.15;4.75;;;3.50;99.90;;;;;;2585807;54;20037;31
2022/01/22 11:04:24;;;;;;;11.47;4.97;;;3.40;99.90;;;;;;2585959;54;20927;31
2022/01/22 11:07:02;;;;;;;8.75;4.55;;;3.20;99.90;;;;;;2585970;54;21960;31
2022/01/22 11:09:56;;;;;;;12.10;4.30;;;3.10;99.90;;;;;;2604139;46;20814;31
2022/01/22 11:12:35;;;;;;;7.85;3.95;;;2.80;99.90;;;;;;2683674;39;21059;31
2022/01/22 11:15:10;;;;;;;11.00;4.72;;;2.70;99.90;;;;;;2585453;54;20869;31
2022/01/22 11:17:46;;;;;;;10.23;4.72;;;2.60;99.90;;;;;;2604319;46;20029;31
2022/01/22 11:20:22;;;;;;;13.50;5.45;;;2.60;99.90;;;;;;2585560;54;20764;31
2022/01/22 11:22:55;;;;;;;11.20;4.30;;;2.30;99.90;;;;;;2600057;46;20041;31
2022/01/22 11:25:30;;;;;;;8.77;4.18;;;2.30;99.90;;;;;;2603175;46;20826;31
2022/01/22 11:28:10;;;;;;;12.50;4.15;;;2.20;99.90;;;;;;2603543;46;20949;31
2022/01/22 11:30:50;;;;;;;6.68;4.00;;;2.10;99.90;;;;;;2585607;54;20030;31
2022/01/22 11:33:27;;;;;;;12.73;4.40;;;2.00;99.90;;;;;;2584816;54;20034;31
2022/01/22 11:36:09;;;;;;;6.47;3.07;;;1.90;99.90;;;;;;2585268;54;20886;31
2022/01/22 11:38:41;;;;;;;11.00;3.80;;;1.90;99.90;;;;;;2585924;54;20046;31
2022/01/22 11:41:23;;;;;;;7.85;3.50;;;1.90;99.90;;;;;;2702291;39;21400;31
2022/01/22 11:46:35;;;;;;;6.70;2.85;;;1.90;99.90;;;;;;2603861;46;20053;31
2022/01/22 11:49:18;;;;;;;9.00;4.25;;;1.90;99.90;;;;;;2585135;54;21010;31
2022/01/22 11:51:56;;;;;;;7.47;2.80;;;1.80;99.90;;;;;;2604227;46;20976;31
2022/01/22 11:54:31;;;;;;;12.68;5.60;;;1.80;99.90;;;;;;2585765;54;20235;31
2022/01/22 11:57:07;;;;;;;5.75;3.60;;;1.80;99.90;;;;;;2585102;54;20031;31
2022/01/22 11:59:44;;;;;;;10.30;4.03;;;1.90;99.90;;;;;;2585534;54;20875;31
2022/01/22 12:02:19;;;;;;;10.77;3.80;;;2.00;99.90;;;;;;2585767;54;20026;31
2022/01/22 12:05:05;;;;;;;11.83;4.77;;;1.90;99.90;;;;;;2585682;54;20022;31
2022/01/22 12:07:41;;;;;;;9.07;3.83;;;2.00;99.90;;;;;;2585622;54;20231;31
2022/01/22 12:10:34;;;;;;;8.73;3.97;;;2.00;99.90;;;;;;2585721;54;20965;31
2022/01/22 12:16:54;;;;;;;21.90;9.70;;;2.00;99.90;;;;;;2585286;54;20792;31
2022/01/22 12:19:31;;;;;;;12.85;7.50;;;1.90;99.90;;;;;;2604308;46;20895;31
2022/01/22 12:22:17;;;;;;;14.35;8.60;;;1.90;99.90;;;;;;2584821;54;20103;31
2022/01/22 12:27:45;;;;;;;11.05;5.30;;;1.90;99.90;;;;;;2604034;46;20776;31
2022/01/22 12:30:36;;;;;;;12.15;5.20;;;1.80;99.90;;;;;;2585631;54;20096;31
2022/01/22 12:33:12;;;;;;;8.40;3.15;;;1.80;99.90;;;;;;2683514;39;22308;31
2022/01/22 12:35:50;;;;;;;7.80;3.35;;;1.60;99.90;;;;;;2585326;54;20097;31
2022/01/22 12:38:23;;;;;;;7.05;2.40;;;1.70;99.90;;;;;;2683825;39;20841;31
2022/01/22 12:41:27;;;;;;;12.35;3.70;;;1.60;99.90;;;;;;2585046;54;20884;31
2022/01/22 12:44:11;;;;;;;7.95;2.90;;;1.50;99.90;;;;;;2585581;54;20955;31
2022/01/22 12:46:55;;;;;;;9.93;3.38;;;1.40;99.90;;;;;;2604017;46;20030;31
2022/01/22 12:49:31;;;;;;;9.05;3.30;;;1.40;99.90;;;;;;2584685;54;20948;31
2022/01/22 12:52:12;;;;;;;7.55;3.00;;;1.30;99.90;;;;;;2585261;54;20113;31
2022/01/22 12:54:55;;;;;;;9.45;3.20;;;1.40;99.90;;;;;;2585359;54;20870;31
2022/01/22 12:57:40;;;;;;;7.43;2.93;;;1.30;99.90;;;;;;2585348;54;20990;31
2022/01/22 13:00:20;;;;;;;9.93;2.77;;;1.30;99.90;;;;;;2585259;54;20123;31
2022/01/22 13:02:56;;;;;;;8.05;3.00;;;1.30;99.90;;;;;;2585454;54;21116;31
2022/01/22 13:05:32;;;;;;;5.30;2.15;;;1.30;99.90;;;;;;2585383;54;20036;31
2022/01/22 13:08:29;;;;;;;10.80;2.75;;;1.20;99.90;;;;;;2585194;54;20919;31
2022/01/22 13:11:18;;;;;;;14.70;4.00;;;1.10;99.90;;;;;;2585539;54;20041;31
2022/01/22 13:14:00;;;;;;;9.27;3.40;;;1.10;99.90;;;;;;2585517;54;20978;31
2022/01/22 13:16:35;;;;;;;12.93;5.33;;;1.10;99.90;;;;;;2584526;54;21159;31
2022/01/22 13:19:10;;;;;;;17.80;6.65;;;1.00;99.90;;;;;;2597748;46;20067;31
2022/01/22 13:21:51;;;;;;;11.25;4.85;;;1.00;99.90;;;;;;2585308;54;20054;31
2022/01/22 13:24:30;;;;;;;13.65;5.25;;;1.10;99.90;;;;;;2585173;54;20951;31
2022/01/22 13:27:11;;;;;;;7.10;3.55;;;1.00;99.90;;;;;;2584360;54;20934;31
2022/01/22 13:29:53;;;;;;;6.30;3.47;;;1.10;99.90;;;;;;2603723;46;20178;31
2022/01/22 13:32:43;;;;;;;9.30;3.57;;;1.10;99.90;;;;;;2585364;54;20756;31
2022/01/22 13:35:25;;;;;;;;;;;1.10;99.90;;;;;;2585364;54;20022;31
2022/01/22 13:38:29;;;;;;;9.80;4.30;;;1.10;99.90;;;;;;2603672;46;19998;31
2022/01/22 13:49:42;;;;;;;9.87;4.50;;;1.10;99.90;;;;;;2585343;54;20976;31
2022/01/22 13:52:17;;;;;;;12.60;5.55;;;1.00;99.90;;;;;;2585222;54;20920;31
2022/01/22 13:54:55;;;;;;;9.30;4.32;;;1.00;99.90;;;;;;2585378;54;20880;31
2022/01/22 13:57:38;;;;;;;21.75;9.75;;;1.00;99.90;;;;;;2584999;54;20117;31
2022/01/22 14:00:10;;;;;;;13.98;6.30;;;1.00;99.90;;;;;;2585251;54;20962;31
2022/01/22 14:03:05;;;;;;;14.45;5.38;;;1.00;99.90;;;;;;2585287;54;20828;31
2022/01/22 14:05:39;;;;;;;10.47;4.77;;;1.10;99.90;;;;;;2585105;54;21009;31
2022/01/22 14:08:12;;;;;;;11.60;5.10;;;1.00;99.90;;;;;;2603241;46;20030;31
2022/01/22 14:10:47;;;;;;;12.88;5.38;;;1.10;99.90;;;;;;2585422;54;20039;31
2022/01/22 14:13:25;;;;;;;17.17;6.70;;;1.10;99.90;;;;;;2585405;54;20023;31
2022/01/22 14:15:58;;;;;;;13.55;5.60;;;1.10;99.90;;;;;;2584963;54;20825;31
2022/01/22 14:18:43;;;;;;;14.45;5.05;;;1.10;99.90;;;;;;2585169;54;20048;31
2022/01/22 14:21:20;;;;;;;12.27;4.03;;;1.00;99.90;;;;;;2585862;54;20030;31
2022/01/22 14:23:55;;;;;;;10.60;3.70;;;1.00;99.90;;;;;;2586212;54;20022;31
2022/01/22 14:26:35;;;;;;;7.50;3.47;;;1.00;99.90;;;;;;2586059;54;20064;31
2022/01/22 14:29:14;;;;;;;7.65;2.95;;;1.00;99.90;;;;;;2586000;54;21034;31
2022/01/22 14:31:50;;;;;;;10.57;3.78;;;1.00;99.90;;;;;;2586086;54;21149;31
2022/01/22 14:34:36;;;;;;;10.98;4.32;;;0.90;99.90;;;;;;2604452;46;20026;31
2022/01/22 14:37:09;;;;;;;7.88;3.90;;;0.90;99.90;;;;;;2585858;54;20022;31
2022/01/22 14:45:23;;;;;;;12.57;3.75;;;0.80;99.90;;;;;;2683284;39;21488;31
2022/01/22 14:47:57;;;;;;;6.90;3.40;;;0.80;99.90;;;;;;2585738;54;20023;31
2022/01/22 14:50:34;;;;;;;9.90;3.47;;;0.80;99.90;;;;;;2585974;54;20113;31
2022/01/22 14:53:10;;;;;;;7.88;2.75;;;0.70;99.90;;;;;;2585793;54;21228;31
2022/01/22 14:55:44;;;;;;;5.82;2.75;;;0.70;99.90;;;;;;2585912;54;20019;31
2022/01/22 14:58:16;;;;;;;11.85;3.95;;;0.60;99.90;;;;;;2585644;54;20026;31
2022/01/22 15:00:55;;;;;;;8.83;3.87;;;0.60;99.90;;;;;;2604283;46;20962;31
2022/01/22 15:03:29;;;;;;;13.50;5.97;;;0.60;99.90;;;;;;2585766;54;20300;31
2022/01/22 15:06:07;;;;;;;15.52;6.55;;;0.60;99.90;;;;;;2585970;54;20933;31
2022/01/22 15:08:39;;;;;;;17.95;8.20;;;0.60;99.90;;;;;;2585674;54;21182;31
2022/01/22 15:11:12;;;;;;;15.80;6.90;;;0.60;99.90;;;;;;2604386;46;21232;31
2022/01/22 15:13:45;;;;;;;16.65;7.70;;;0.60;99.90;;;;;;2585884;54;20027;31
2022/01/22 15:16:20;;;;;;;13.40;6.00;;;0.50;99.90;;;;;;2585833;54;20056;31
2022/01/22 15:19:01;;;;;;;10.67;4.17;;;0.50;99.90;;;;;;2585765;54;20778;31
2022/01/22 15:21:39;;;;;;;10.33;5.13;;;0.50;99.90;;;;;;2585754;54;21055;31
2022/01/22 15:24:11;;;;;;;13.85;5.35;;;0.50;99.90;;;;;;2585290;54;20242;31
2022/01/22 15:26:48;;;;;;;12.40;5.82;;;0.50;99.90;;;;;;2585963;54;20046;31
2022/01/22 15:29:25;;;;;;;10.30;5.35;;;0.40;99.90;;;;;;2604235;46;20818;31
2022/01/22 15:32:17;;;;;;;14.50;7.47;;;0.40;99.90;;;;;;2603908;46;20948;31
2022/01/22 15:35:00;;;;;;;15.85;8.93;;;0.40;99.90;;;;;;2604173;46;21000;31
2022/01/22 15:37:36;;;;;;;14.93;7.80;;;0.40;99.90;;;;;;2683435;39;20535;31
2022/01/22 15:40:13;;;;;;;9.47;4.80;;;0.40;99.90;;;;;;2754361;31;21619;31
2022/01/22 15:42:45;;;;;;;13.47;5.23;;;0.40;99.90;;;;;;2604479;46;20049;31
2022/01/22 15:45:48;;;;;;;25.80;11.80;;;0.40;99.90;;;;;;2585688;54;20290;31
2022/01/22 15:48:23;;;;;;;39.65;18.25;;;0.40;99.90;;;;;;2598271;46;20770;31
2022/01/22 15:50:57;;;;;;;38.05;19.10;;;0.40;99.90;;;;;;2603923;46;20798;31
2022/01/22 15:53:34;;;;;;;21.88;10.50;;;0.40;99.90;;;;;;2585837;54;20052;31
2022/01/22 15:56:08;;;;;;;18.23;9.15;;;0.30;99.90;;;;;;2585397;54;20030;31
2022/01/22 15:58:46;;;;;;;11.38;5.60;;;0.30;99.90;;;;;;2585491;54;20944;31
2022/01/22 16:01:20;;;;;;;9.20;4.28;;;0.30;99.90;;;;;;2585289;54;20881;31